Time;durP1;ratioP1;P1;durP2;ratioP2;P2;SDS_P1;SDS_P2;PMS_P1;PMS_P2;Temp;Humidity;BMP_temperature;BMP_pressure;BME280_temperature;BME280_humidity;BME280_pressure;Samples;Min_cycle;Max_cycle;Signal;HPM_P1;HPM_P2
2021/01/14 00:00:33;;;;;;;40.98;27.55;;;;;;;-0.46;68.73;97949.51;1810820;77;21137;-45
2021/01/14 00:03:02;;;;;;;42.27;27.25;;;;;;;-0.37;68.61;97946.01;1762292;80;21039;-46
2021/01/14 00:05:30;;;;;;;39.20;26.23;;;;;;;-0.30;68.48;97944.96;1780393;79;21236;-46
2021/01/14 00:07:58;;;;;;;43.20;28.38;;;;;;;-0.27;68.58;97941.09;1774843;80;21257;-45
2021/01/14 00:10:27;;;;;;;42.60;29.65;;;;;;;-0.53;68.42;97886.66;1816057;78;21655;-46
2021/01/14 00:12:55;;;;;;;45.83;29.30;;;;;;;-0.03;68.28;97947.12;1813851;78;21154;-46
2021/01/14 00:15:23;;;;;;;42.73;28.20;;;;;;;0.05;68.00;97946.27;1756202;81;21042;-46
2021/01/14 00:17:52;;;;;;;41.98;26.68;;;;;;;0.13;67.77;97952.11;1788686;78;21122;-46
2021/01/14 00:20:20;;;;;;;41.90;27.15;;;;;;;0.21;67.44;97944.59;1788754;79;21195;-46
2021/01/14 00:22:48;;;;;;;44.15;28.60;;;;;;;0.27;67.23;97945.96;1769126;80;21794;-46
2021/01/14 00:25:17;;;;;;;38.55;26.97;;;;;;;0.34;66.91;97953.41;1789946;79;21123;-46
2021/01/14 00:27:45;;;;;;;43.70;28.57;;;;;;;0.04;66.74;97894.12;1792269;79;21123;-47
2021/01/14 00:30:26;;;;;;;39.05;27.32;;;;;;;0.43;66.56;97944.81;1783127;79;21170;-46
2021/01/14 00:32:55;;;;;;;42.62;28.10;;;;;;;0.45;66.54;97951.92;1775961;79;21208;-47
2021/01/14 00:35:26;;;;;;;39.23;26.42;;;;;;;0.50;66.19;97954.38;1760394;80;21058;-47
2021/01/14 00:37:55;;;;;;;32.42;21.85;;;;;;;0.46;66.10;97960.15;1807539;78;21159;-46
2021/01/14 00:40:30;;;;;;;44.07;28.13;;;;;;;0.38;66.12;97957.80;1807629;78;21126;-46
2021/01/14 00:43:04;;;;;;;41.68;28.92;;;;;;;0.32;66.20;97958.31;1769858;79;21697;-47
2021/01/14 00:45:32;;;;;;;49.40;28.32;;;;;;;0.26;66.48;97951.61;1786172;79;21163;-46
2021/01/14 00:48:02;;;;;;;44.83;29.60;;;;;;;0.32;66.52;97953.77;1823218;78;21161;-45
2021/01/14 00:50:31;;;;;;;46.18;29.72;;;;;;;0.33;66.50;97950.00;1787940;80;21237;-46
2021/01/14 00:52:59;;;;;;;41.88;28.38;;;;;;;0.38;66.44;97949.80;1764435;79;21630;-46
2021/01/14 00:55:27;;;;;;;41.98;28.15;;;;;;;0.43;66.27;97952.27;1793951;78;21149;-46
2021/01/14 00:57:55;;;;;;;41.15;27.45;;;;;;;0.47;66.21;97955.59;1788565;79;21342;-46
2021/01/14 01:00:26;;;;;;;44.05;28.15;;;;;;;0.50;66.01;97957.60;1777245;79;21148;-46
2021/01/14 01:02:56;;;;;;;38.45;26.68;;;;;;;0.47;65.86;97954.27;1805808;78;21455;-46
2021/01/14 01:05:24;;;;;;;37.03;25.25;;;;;;;0.37;65.93;97956.78;1827091;78;21146;-46
2021/01/14 01:07:57;;;;;;;36.98;25.05;;;;;;;0.29;66.21;97951.73;1823559;78;21568;-46
2021/01/14 01:10:24;;;;;;;35.43;23.80;;;;;;;0.24;66.35;97955.92;1821044;78;21195;-46
2021/01/14 01:12:55;;;;;;;33.55;23.83;;;;;;;0.16;66.43;97950.12;1787583;79;22147;-46
2021/01/14 01:15:25;;;;;;;30.82;21.33;;;;;;;0.07;66.68;97946.74;1793929;79;21579;-46
2021/01/14 01:17:53;;;;;;;32.58;22.87;;;;;;;-0.01;66.89;97944.93;1795899;78;21106;-46
2021/01/14 01:20:23;;;;;;;35.52;22.95;;;;;;;-0.11;67.19;97950.64;1776394;78;21105;-45
2021/01/14 01:22:51;;;;;;;;;;;;;;;-0.11;67.35;97950.64;1795340;78;21444;-46
2021/01/14 01:25:20;;;;;;;36.90;23.50;;;;;;;-0.11;67.46;97950.09;1793466;80;20432;-46
2021/01/14 01:27:48;;;;;;;32.60;22.20;;;;;;;-0.14;67.64;97949.94;1793191;78;21158;-46
2021/01/14 01:30:18;;;;;;;34.27;23.42;;;;;;;-0.05;67.53;97948.02;1789930;78;21157;-46
2021/01/14 01:32:48;;;;;;;34.38;24.75;;;;;;;-0.02;67.39;97952.14;1768910;80;21189;-47
2021/01/14 01:35:17;;;;;;;37.48;25.25;;;;;;;0.02;67.30;97942.16;1742779;81;21384;-46
2021/01/14 01:37:45;;;;;;;36.23;25.30;;;;;;;0.02;67.29;97949.59;1756008;80;21146;-46
2021/01/14 01:40:14;;;;;;;35.58;25.27;;;;;;;-0.01;67.27;97943.05;1758658;80;21157;-46
2021/01/14 01:42:43;;;;;;;36.15;25.27;;;;;;;0.04;67.34;97946.06;1780855;79;21589;-46
2021/01/14 01:45:13;;;;;;;36.73;25.10;;;;;;;0.14;67.24;97943.56;1780137;80;21106;-46
2021/01/14 01:47:43;;;;;;;34.48;24.52;;;;;;;0.21;67.12;97945.92;1783438;78;21368;-46
2021/01/14 01:50:12;;;;;;;36.63;26.07;;;;;;;0.29;66.82;97951.73;1783058;80;21154;-46
2021/01/14 01:52:40;;;;;;;35.38;24.67;;;;;;;0.35;66.53;97958.43;1785668;79;21047;-46
2021/01/14 01:55:10;;;;;;;38.88;26.20;;;;;;;0.33;66.44;97946.55;1783476;80;20992;-46
2021/01/14 01:57:38;;;;;;;38.33;26.87;;;;;;;0.31;66.55;97951.41;1767139;80;21181;-46
2021/01/14 02:00:08;;;;;;;41.10;26.27;;;;;;;0.30;66.57;97943.97;1716042;81;21306;-46
2021/01/14 02:02:36;;;;;;;39.92;25.75;;;;;;;0.32;66.52;97944.43;1769234;79;21176;-46
2021/01/14 02:05:07;;;;;;;37.80;25.85;;;;;;;0.27;66.61;97945.96;1753410;79;21174;-46
2021/01/14 02:08:01;;;;;;;;;;;;;;;0.32;66.56;97951.09;1775611;79;21173;-46
2021/01/14 02:10:37;;;;;;;39.78;26.10;;;;;;;0.30;66.56;97943.97;1742254;79;20280;-47
2021/01/14 02:13:25;;;;;;;37.17;26.15;;;;;;;0.26;66.75;97945.73;1739874;81;21386;-46
2021/01/14 02:15:54;;;;;;;40.95;27.37;;;;;;;0.32;66.68;97954.31;1748169;79;21157;-46
2021/01/14 02:18:25;;;;;;;35.90;25.15;;;;;;;0.39;66.57;97943.34;1770724;79;21146;-46
2021/01/14 02:20:57;;;;;;;42.95;27.00;;;;;;;0.49;66.59;97944.82;1767823;79;21164;-46
2021/01/14 02:24:07;;;;;;;39.13;25.62;;;;;;;0.61;66.23;97944.09;1769858;79;21177;-47
2021/01/14 02:26:37;;;;;;;43.17;25.92;;;;;;;0.65;65.99;97952.45;1769354;79;21288;-47
2021/01/14 02:29:06;;;;;;;39.63;25.15;;;;;;;0.63;65.78;97955.98;1785383;79;21165;-46
2021/01/14 02:31:35;;;;;;;36.53;25.02;;;;;;;0.60;65.59;97959.86;1789150;80;21148;-46
2021/01/14 02:34:03;;;;;;;37.93;24.98;;;;;;;0.54;65.73;97955.83;1809927;77;21456;-46
2021/01/14 02:36:32;;;;;;;38.55;26.02;;;;;;;0.54;65.75;97950.50;1766456;80;21139;-46
2021/01/14 02:39:00;;;;;;;40.78;27.52;;;;;;;0.53;65.83;97951.63;1797765;79;21408;-46
2021/01/14 02:41:28;;;;;;;40.83;27.95;;;;;;;0.57;65.68;97961.31;1806972;79;21190;-46
2021/01/14 02:43:56;;;;;;;45.08;29.70;;;;;;;0.55;65.48;97957.40;1788881;79;21149;-46
2021/01/14 02:46:25;;;;;;;43.68;27.48;;;;;;;0.52;65.62;97947.41;1768731;79;21145;-46
2021/01/14 02:49:07;;;;;;;47.17;29.52;;;;;;;0.54;65.80;97948.62;1770749;79;21105;-46
2021/01/14 02:51:51;;;;;;;41.90;29.52;;;;;;;0.62;65.89;97949.11;1779051;79;21367;-46
2021/01/14 02:54:20;;;;;;;47.05;30.12;;;;;;;0.66;65.40;97950.02;1769503;79;21595;-47
2021/01/14 02:56:51;;;;;;;42.08;27.93;;;;;;;0.68;65.05;97940.33;1771260;79;21154;-46
2021/01/14 02:59:19;;;;;;;46.33;29.10;;;;;;;0.72;65.09;97941.25;1777180;79;21102;-46
2021/01/14 03:01:48;;;;;;;38.33;26.15;;;;;;;0.77;64.89;97945.05;1767641;79;21149;-46
2021/01/14 03:04:16;;;;;;;40.83;25.97;;;;;;;0.77;64.77;97945.83;1756362;80;22307;-46
2021/01/14 03:06:45;;;;;;;37.10;24.87;;;;;;;0.81;64.34;97940.61;1754048;81;21647;-46
2021/01/14 03:09:15;;;;;;;36.48;24.92;;;;;;;0.73;64.18;97936.91;1808385;79;21043;-46
2021/01/14 03:11:43;;;;;;;38.23;25.15;;;;;;;0.73;64.18;97936.91;1794663;79;21575;-46
2021/01/14 03:14:11;;;;;;;37.65;25.23;;;;;;;0.70;64.40;97944.23;1800057;79;21178;-46
2021/01/14 03:16:41;;;;;;;36.93;25.27;;;;;;;0.67;64.64;97940.12;1768724;80;25050;-46
2021/01/14 03:19:09;;;;;;;35.92;22.93;;;;;;;0.71;64.64;97935.69;1768340;79;21173;-46
2021/01/14 03:21:38;;;;;;;35.20;23.05;;;;;;;0.76;64.47;97943.48;1773680;79;21133;-46
2021/01/14 03:24:08;;;;;;;31.30;21.95;;;;;;;0.76;64.21;97938.93;1752304;80;21047;-46
2021/01/14 03:26:37;;;;;;;31.55;20.23;;;;;;;0.77;64.24;97945.83;1766825;80;21128;-46
2021/01/14 03:29:06;;;;;;;;;;;;;;;0.74;64.15;97949.14;1781484;79;21211;-46
2021/01/14 03:31:34;;;;;;;27.25;17.92;;;;;;;0.71;64.05;97944.47;1776572;79;20268;-47
2021/01/14 03:34:02;;;;;;;23.52;17.00;;;;;;;0.59;64.44;97944.97;1790176;79;21579;-46
2021/01/14 03:36:32;;;;;;;24.80;17.30;;;;;;;0.62;64.21;97942.44;1762379;80;21175;-46
2021/01/14 03:39:00;;;;;;;26.17;17.80;;;;;;;0.62;64.21;97942.44;1752674;81;21962;-46
2021/01/14 03:41:30;;;;;;;25.37;17.57;;;;;;;0.63;64.59;97939.23;1731144;81;21378;-46
2021/01/14 03:43:58;;;;;;;30.55;18.67;;;;;;;0.68;64.68;97936.33;1746377;80;21183;-46
2021/01/14 03:48:28;;;;;;;28.45;19.07;;;;;;;0.75;64.83;97940.58;1840035;78;23133;-45
2021/01/14 03:50:56;;;;;;;24.70;17.20;;;;;;;0.64;65.08;97939.42;1805220;77;21008;-45
2021/01/14 03:53:24;;;;;;;27.37;18.48;;;;;;;0.70;65.02;97940.79;1797896;79;22109;-45
2021/01/14 03:55:53;;;;;;;26.07;18.12;;;;;;;0.73;64.85;97938.23;1748227;82;20975;-45
2021/01/14 03:58:24;;;;;;;27.22;18.42;;;;;;;0.75;64.83;97931.25;1755440;79;21022;-45
2021/01/14 04:00:53;;;;;;;28.45;18.65;;;;;;;0.80;64.85;97931.82;1755151;80;21057;-45
2021/01/14 04:03:21;;;;;;;26.25;18.30;;;;;;;0.81;64.74;97931.27;1767245;80;21011;-45
2021/01/14 04:05:50;;;;;;;26.93;18.98;;;;;;;0.78;64.84;97929.24;1771111;79;21659;-44
2021/01/14 04:08:18;;;;;;;25.88;18.42;;;;;;;0.78;64.89;97923.91;1765185;80;21041;-45
2021/01/14 04:10:48;;;;;;;28.65;18.80;;;;;;;0.76;65.02;97922.92;1780187;80;20979;-45
2021/01/14 04:13:16;;;;;;;21.05;14.50;;;;;;;0.77;64.97;97923.70;1751502;80;21203;-45
2021/01/14 04:15:44;;;;;;;30.30;20.30;;;;;;;0.77;64.98;97929.05;1741056;80;21669;-46
2021/01/14 04:18:15;;;;;;;30.05;19.92;;;;;;;0.75;64.80;97924.58;1734342;82;21370;-45
2021/01/14 04:20:44;;;;;;;32.03;20.10;;;;;;;0.75;64.83;97928.03;1774537;80;21206;-45
2021/01/14 04:23:12;;;;;;;29.57;20.27;;;;;;;0.72;64.92;97918.58;1770810;80;21043;-45
2021/01/14 04:25:43;;;;;;;31.10;20.17;;;;;;;0.71;65.09;97917.80;1776468;80;21154;-45
2021/01/14 04:28:11;;;;;;;30.07;21.43;;;;;;;0.45;65.03;97875.94;1728402;82;21214;-45
2021/01/14 04:30:40;;;;;;;28.98;19.92;;;;;;;0.75;65.01;97922.69;1780198;80;21444;-46
2021/01/14 04:33:11;;;;;;;31.00;20.62;;;;;;;0.80;65.11;97926.48;1765381;80;21485;-45
2021/01/14 04:35:55;;;;;;;30.55;21.48;;;;;;;0.82;65.04;97926.92;1766392;79;21188;-45
2021/01/14 04:38:25;;;;;;;36.13;22.27;;;;;;;0.77;65.15;97929.05;1754626;80;21044;-45
2021/01/14 04:41:01;;;;;;;28.60;20.15;;;;;;;0.69;65.31;97933.89;1749526;80;21624;-45
2021/01/14 04:43:31;;;;;;;30.40;20.10;;;;;;;0.71;65.18;97937.80;1762940;78;22339;-45
2021/01/14 04:46:07;;;;;;;28.50;20.30;;;;;;;0.70;65.23;97939.45;1757167;80;21030;-46
2021/01/14 04:48:41;;;;;;;32.30;20.57;;;;;;;0.75;65.17;97944.58;1769636;80;21029;-45
2021/01/14 04:51:15;;;;;;;30.12;20.88;;;;;;;0.76;65.05;97942.15;1755605;80;21130;-45
2021/01/14 04:53:48;;;;;;;29.98;21.42;;;;;;;0.70;65.13;97945.57;1784234;80;21643;-45
2021/01/14 04:56:18;;;;;;;31.00;21.35;;;;;;;0.61;65.30;97944.88;1783873;80;21374;-45
2021/01/14 04:58:47;;;;;;;31.48;21.20;;;;;;;0.52;65.53;97939.41;1757769;80;21215;-45
2021/01/14 05:01:24;;;;;;;23.42;16.15;;;;;;;0.41;65.77;97938.47;1758603;80;21635;-45
2021/01/14 05:03:53;;;;;;;29.77;20.37;;;;;;;0.38;65.93;97935.14;1774064;80;21106;-45
2021/01/14 05:06:25;;;;;;;32.13;20.72;;;;;;;0.33;65.98;97934.55;1755491;81;21477;-45
2021/01/14 05:09:04;;;;;;;30.32;21.07;;;;;;;0.28;66.10;97932.09;1751272;80;21286;-45
2021/01/14 05:11:45;;;;;;;;;;;;;;;0.23;66.18;97930.41;1770246;78;21017;-45
2021/01/14 05:14:18;;;;;;;29.92;19.48;;;;;;;0.14;66.29;97928.36;1755969;80;20198;-45
2021/01/14 05:16:43;;;;;;;;;;;;;;;-0.02;66.83;97923.38;1744975;80;21196;-46
2021/01/14 05:19:11;;;;;;;31.93;19.73;;;;;;;-0.02;67.09;97926.05;1754428;80;20304;-45
2021/01/14 05:21:39;;;;;;;30.82;20.08;;;;;;;-0.04;67.38;97927.70;1769504;80;21195;-45
2021/01/14 05:24:15;;;;;;;29.30;19.95;;;;;;;-0.05;67.31;97928.80;1762225;80;21148;-45
2021/01/14 05:26:46;;;;;;;33.83;20.55;;;;;;;-0.13;67.59;97928.86;1765762;78;21047;-45
2021/01/14 05:29:17;;;;;;;29.82;19.70;;;;;;;-0.16;67.65;97926.85;1776978;80;21013;-45
2021/01/14 05:31:46;;;;;;;32.55;21.17;;;;;;;-0.18;67.80;97930.38;1758329;80;21217;-45
2021/01/14 05:34:14;;;;;;;32.60;21.82;;;;;;;-0.17;67.90;97926.62;1771389;81;21202;-45
2021/01/14 05:37:05;;;;;;;31.70;20.60;;;;;;;-0.17;68.10;97926.62;1768186;80;21675;-45
2021/01/14 05:39:42;;;;;;;30.27;21.35;;;;;;;-0.13;68.02;97928.86;1772887;78;21114;-45
2021/01/14 05:42:11;;;;;;;32.42;21.12;;;;;;;-0.21;68.21;97929.70;1786312;80;21152;-45
2021/01/14 05:44:44;;;;;;;31.37;21.82;;;;;;;-0.24;68.12;97922.38;1758149;80;26514;-45
2021/01/14 05:47:25;;;;;;;33.45;21.30;;;;;;;-0.24;68.22;97920.46;1755584;80;21377;-45
2021/01/14 05:50:02;;;;;;;34.85;21.50;;;;;;;-0.25;68.24;97928.25;1724063;82;21208;-46
2021/01/14 05:52:31;;;;;;;31.45;21.87;;;;;;;-0.24;68.14;97922.38;1795016;77;21152;-46
2021/01/14 05:55:09;;;;;;;32.98;22.15;;;;;;;-0.22;68.26;97932.13;1783766;79;21169;-45
2021/01/14 05:57:38;;;;;;;30.20;20.88;;;;;;;-0.19;68.20;97930.15;1795397;79;21134;-45
2021/01/14 06:00:13;;;;;;;31.93;21.00;;;;;;;-0.13;68.07;97932.86;1794772;79;21377;-45
2021/01/14 06:02:41;;;;;;;32.67;21.48;;;;;;;-0.07;67.97;97935.56;1810089;77;21149;-44
2021/01/14 06:05:28;;;;;;;32.45;22.73;;;;;;;-0.03;67.84;97938.59;1813766;79;21601;-45
2021/01/14 06:07:57;;;;;;;34.70;22.98;;;;;;;-0.02;67.65;97939.37;1796743;78;21003;-45
2021/01/14 06:10:31;;;;;;;36.50;23.32;;;;;;;0.00;67.62;97949.16;1784437;77;21158;-45
2021/01/14 06:12:59;;;;;;;36.77;23.73;;;;;;;-0.01;67.48;97940.93;1802064;79;21631;-45
2021/01/14 06:15:28;;;;;;;38.42;25.25;;;;;;;-0.01;67.46;97942.27;1800497;77;21114;-45
2021/01/14 06:17:56;;;;;;;38.88;23.98;;;;;;;-0.02;67.55;97941.48;1812458;79;21142;-45
2021/01/14 06:20:25;;;;;;;38.88;24.80;;;;;;;-0.05;67.49;97936.78;1750954;79;21135;-45
2021/01/14 06:22:58;;;;;;;36.23;24.07;;;;;;;-0.10;67.62;97938.88;1781648;79;21142;-45
2021/01/14 06:25:26;;;;;;;35.03;23.25;;;;;;;-0.18;67.99;97937.03;1766487;79;21383;-45
2021/01/14 06:27:55;;;;;;;32.85;23.05;;;;;;;-0.22;68.09;97940.12;1791670;77;21452;-45
2021/01/14 06:30:24;;;;;;;25.57;17.52;;;;;;;-0.34;68.45;97936.84;1746870;82;21198;-45
2021/01/14 06:33:03;;;;;;;35.95;23.35;;;;;;;-0.33;68.56;97941.59;1812419;79;20980;-45
2021/01/14 06:35:33;;;;;;;35.77;23.13;;;;;;;-0.33;68.69;97936.27;1811329;79;21609;-45
2021/01/14 06:38:04;;;;;;;35.60;23.35;;;;;;;-0.27;68.44;97933.66;1768428;77;21708;-45
2021/01/14 06:40:37;;;;;;;34.60;22.77;;;;;;;-0.29;68.56;97935.30;1816209;78;21075;-45
2021/01/14 06:43:05;;;;;;;38.88;25.10;;;;;;;-0.21;68.62;97935.81;1818604;77;20996;-45
2021/01/14 06:45:42;;;;;;;40.00;24.40;;;;;;;-0.24;68.40;97931.12;1741848;79;21917;-45
2021/01/14 06:48:17;;;;;;;36.20;23.87;;;;;;;-0.19;68.33;97933.59;1749483;80;21436;-45
2021/01/14 06:50:48;;;;;;;40.12;25.40;;;;;;;-0.61;68.56;97884.06;1714479;82;22152;-45
2021/01/14 06:53:21;;;;;;;36.80;24.55;;;;;;;-0.27;68.67;97937.65;1751492;81;21161;-45
2021/01/14 06:55:49;;;;;;;39.63;25.85;;;;;;;-0.33;68.83;97941.05;1750835;81;21134;-46
2021/01/14 06:58:20;;;;;;;39.45;26.35;;;;;;;-0.35;69.19;97943.81;1743079;82;21406;-46
2021/01/14 07:00:50;;;;;;;42.45;27.85;;;;;;;-0.38;69.38;97943.11;1735053;82;21146;-46
2021/01/14 07:03:21;;;;;;;40.88;27.05;;;;;;;-0.38;69.65;97940.45;1749716;81;26936;-46
2021/01/14 07:05:58;;;;;;;46.98;28.50;;;;;;;-0.38;69.58;97946.55;1739470;80;21605;-46
2021/01/14 07:08:37;;;;;;;43.90;27.93;;;;;;;-0.39;69.76;97945.02;1774472;80;21135;-46
2021/01/14 07:11:19;;;;;;;44.65;28.27;;;;;;;-0.39;69.62;97953.00;1777212;80;21170;-46
2021/01/14 07:13:51;;;;;;;44.75;28.35;;;;;;;-0.42;69.91;97952.84;1748017;82;21560;-46
2021/01/14 07:16:25;;;;;;;50.40;30.00;;;;;;;-0.38;70.00;97951.09;1812908;78;22312;-47
2021/01/14 07:18:56;;;;;;;44.65;28.92;;;;;;;-0.37;69.90;97944.67;1791673;79;21146;-46
2021/01/14 07:21:36;;;;;;;48.33;29.25;;;;;;;-0.33;69.72;97945.59;1813751;79;21123;-46
2021/01/14 07:24:31;;;;;;;46.37;28.85;;;;;;;-0.30;69.61;97947.62;1807388;79;21170;-46
2021/01/14 07:26:59;;;;;;;47.95;29.48;;;;;;;-0.29;69.77;97950.52;1769697;79;21087;-47
2021/01/14 07:29:30;;;;;;;47.25;30.32;;;;;;;-0.27;69.69;97958.41;1807259;78;21430;-47
2021/01/14 07:31:59;;;;;;;46.53;29.20;;;;;;;-0.30;69.80;97958.27;1813836;79;21007;-45
2021/01/14 07:34:44;;;;;;;52.90;32.55;;;;;;;-0.30;69.85;97957.73;1813720;79;21714;-46
2021/01/14 07:37:18;;;;;;;52.03;32.73;;;;;;;-0.32;69.90;97952.48;1811495;79;21146;-45
2021/01/14 07:39:56;;;;;;;52.90;33.20;;;;;;;-0.41;69.92;97954.41;1813475;78;21127;-46
2021/01/14 07:42:32;;;;;;;60.03;35.85;;;;;;;-0.46;70.14;97950.84;1810952;78;21187;-46
2021/01/14 07:45:11;;;;;;;56.80;35.28;;;;;;;-0.51;70.37;97962.22;1811882;79;21170;-46
2021/01/14 07:47:44;;;;;;;54.85;34.67;;;;;;;-0.53;70.49;97959.86;1804272;77;21218;-46
2021/01/14 07:50:26;;;;;;;55.17;34.40;;;;;;;-0.53;70.79;97966.52;1737897;80;21007;-45
2021/01/14 07:52:57;;;;;;;60.05;37.00;;;;;;;-0.50;70.92;97967.23;1747374;81;21203;-46
2021/01/14 07:55:32;;;;;;;57.45;36.53;;;;;;;-0.45;70.86;97968.38;1769116;81;21199;-46
2021/01/14 07:58:20;;;;;;;65.57;37.50;;;;;;;-0.44;70.76;97968.58;1768848;80;20981;-46
2021/01/14 08:01:05;;;;;;;59.48;37.60;;;;;;;-0.33;70.57;97973.55;1772300;79;21154;-46
2021/01/14 08:03:43;;;;;;;63.58;38.48;;;;;;;-0.34;70.51;97977.33;1769354;79;21047;-46
2021/01/14 08:06:44;;;;;;;57.50;36.17;;;;;;;-0.32;70.55;97981.77;1772864;79;21162;-45
2021/01/14 08:09:10;;;;;;;57.55;37.15;;;;;;;-0.28;70.67;97982.69;1771907;79;21574;-45
2021/01/14 08:11:52;;;;;;;58.35;36.77;;;;;;;-0.17;70.69;97974.56;1778256;79;21144;-45
2021/01/14 08:14:22;;;;;;;63.45;39.88;;;;;;;-0.03;70.27;97985.20;1743359;81;21165;-46
2021/01/14 08:16:51;;;;;;;63.97;38.60;;;;;;;0.04;70.16;97988.70;1770178;81;21638;-46
2021/01/14 08:19:36;;;;;;;55.50;36.48;;;;;;;0.04;70.03;97991.91;1773337;80;21175;-46
2021/01/14 08:22:12;;;;;;;61.23;37.73;;;;;;;-0.03;70.22;97989.20;1762820;80;21329;-46
2021/01/14 08:24:52;;;;;;;60.83;37.58;;;;;;;-0.06;70.11;97986.41;1777024;80;21629;-46
2021/01/14 08:27:25;;;;;;;;;;;;;;;-0.09;70.33;97985.70;1755051;80;21176;-45
2021/01/14 08:30:16;;;;;;;62.30;37.63;;;;;;;-0.01;70.31;97985.67;1744235;81;20245;-45
2021/01/14 08:33:04;;;;;;;62.58;37.75;;;;;;;0.03;70.28;97987.13;1752845;81;21151;-45
2021/01/14 08:35:36;;;;;;;60.55;37.73;;;;;;;0.14;70.16;97983.54;1745497;81;21374;-46
2021/01/14 08:38:13;;;;;;;56.58;36.33;;;;;;;0.29;69.82;97991.71;1765147;81;21183;-46
2021/01/14 08:40:43;;;;;;;62.93;38.73;;;;;;;0.39;69.71;97993.98;1760668;79;21163;-45
2021/01/14 08:43:18;;;;;;;62.55;38.98;;;;;;;0.53;69.33;97995.63;1748773;81;21659;-46
2021/01/14 08:48:33;;;;;;;60.28;43.65;;;;;;;0.76;68.63;97988.27;1862323;74;27838;-45
2021/01/14 08:51:02;;;;;;;59.30;39.92;;;;;;;0.96;68.15;97986.67;1841958;76;21683;-45
2021/01/14 08:53:36;;;;;;;61.30;38.53;;;;;;;1.20;67.41;97989.95;1835680;77;21188;-45
2021/01/14 08:56:18;;;;;;;59.77;38.35;;;;;;;1.13;67.50;97983.81;1823134;77;21000;-45
2021/01/14 08:58:50;;;;;;;59.77;39.10;;;;;;;1.12;67.43;97984.91;1839071;77;20971;-45
2021/01/14 09:01:22;;;;;;;61.95;38.98;;;;;;;1.14;67.44;97982.70;1824359;78;20932;-45
2021/01/14 09:03:54;;;;;;;59.70;38.83;;;;;;;1.18;67.41;97985.48;1830761;77;21003;-45
2021/01/14 09:06:38;;;;;;;66.95;38.85;;;;;;;1.17;67.43;97981.25;1843427;77;21183;-44
2021/01/14 09:09:10;;;;;;;62.70;38.85;;;;;;;1.20;67.13;97986.73;1827245;77;21623;-44
2021/01/14 09:11:39;;;;;;;54.55;35.55;;;;;;;1.19;67.11;97985.16;1822834;77;20978;-45
2021/01/14 09:14:13;;;;;;;59.27;35.75;;;;;;;1.23;67.11;97986.05;1834621;77;21389;-44
2021/01/14 09:16:45;;;;;;;56.15;36.48;;;;;;;1.26;67.20;97985.94;1831671;77;21115;-45
2021/01/14 09:19:23;;;;;;;60.15;36.48;;;;;;;1.25;67.14;97984.40;1842698;76;21181;-45
2021/01/14 09:21:53;;;;;;;63.25;38.38;;;;;;;1.28;66.99;97991.73;1821733;76;21193;-45
2021/01/14 09:24:21;;;;;;;59.18;36.73;;;;;;;1.34;67.01;97989.63;1838017;77;21421;-44
2021/01/14 09:26:53;;;;;;;60.40;37.60;;;;;;;1.33;66.88;97984.06;1830821;77;21623;-44
2021/01/14 09:29:30;;;;;;;58.30;37.53;;;;;;;1.37;66.90;97979.06;1831320;77;21136;-44
2021/01/14 09:31:58;;;;;;;63.28;37.67;;;;;;;1.40;66.80;97973.08;1789657;80;21217;-44
2021/01/14 09:34:26;;;;;;;62.10;38.15;;;;;;;1.39;66.88;97977.41;1790125;79;21186;-44
2021/01/14 09:36:55;;;;;;;62.93;38.38;;;;;;;1.34;66.73;97976.28;1801565;79;21526;-44
2021/01/14 09:39:25;;;;;;;56.85;35.65;;;;;;;1.24;67.00;97987.63;1780548;79;21121;-44
2021/01/14 09:41:57;;;;;;;55.85;34.73;;;;;;;1.20;67.18;97982.72;1717200;80;21598;-45
2021/01/14 09:44:29;;;;;;;57.75;34.95;;;;;;;1.24;67.20;97982.83;1769090;78;21157;-44
2021/01/14 09:46:58;;;;;;;59.25;36.50;;;;;;;1.31;66.97;97982.50;1726231;81;21189;-45
2021/01/14 09:49:26;;;;;;;59.45;35.92;;;;;;;1.33;67.06;97984.06;1741525;82;21177;-45
2021/01/14 09:51:54;;;;;;;62.38;37.93;;;;;;;1.34;67.25;97983.73;1792235;79;21023;-45
2021/01/14 09:54:22;;;;;;;59.00;36.48;;;;;;;1.36;67.17;97979.38;1773288;80;21209;-45
2021/01/14 09:56:53;;;;;;;63.10;38.17;;;;;;;1.38;67.18;97978.51;1761382;80;21254;-44
2021/01/14 09:59:41;;;;;;;53.90;35.08;;;;;;;1.40;67.27;97970.41;1757746;80;21183;-45
2021/01/14 10:02:25;;;;;;;61.88;36.63;;;;;;;1.43;67.38;97973.73;1772658;80;21134;-45
2021/01/14 10:05:01;;;;;;;52.93;35.40;;;;;;;1.48;67.30;97968.17;1756131;80;21173;-45
2021/01/14 10:07:29;;;;;;;56.20;34.63;;;;;;;1.54;67.10;97967.41;1783986;80;21102;-45
2021/01/14 10:09:59;;;;;;;60.25;34.67;;;;;;;1.63;66.64;97968.06;1757668;80;21000;-45
2021/01/14 10:12:32;;;;;;;53.17;35.20;;;;;;;1.69;66.67;97969.41;1759252;80;21182;-45
2021/01/14 10:15:13;;;;;;;50.23;31.68;;;;;;;1.72;66.63;97968.73;1755066;81;21145;-44
2021/01/14 10:17:41;;;;;;;41.65;27.10;;;;;;;1.76;66.39;97964.27;1757886;80;21146;-45
2021/01/14 10:20:12;;;;;;;47.03;29.50;;;;;;;1.81;65.99;97967.27;1755208;81;21166;-45
2021/01/14 10:22:52;;;;;;;45.78;29.95;;;;;;;1.78;65.75;97965.28;1755312;80;21192;-45
2021/01/14 10:25:21;;;;;;;52.33;31.23;;;;;;;1.75;65.84;97966.71;1757713;80;21124;-44
2021/01/14 10:28:10;;;;;;;48.78;30.92;;;;;;;1.75;66.04;97965.37;1777275;80;21150;-45
2021/01/14 10:30:40;;;;;;;47.15;28.95;;;;;;;1.79;66.23;97966.28;1786175;79;21157;-44
2021/01/14 10:33:08;;;;;;;45.45;29.25;;;;;;;1.87;65.97;97964.05;1783583;80;21177;-45
2021/01/14 10:35:39;;;;;;;49.95;32.58;;;;;;;1.93;65.98;97959.25;1783782;80;21427;-45
2021/01/14 10:38:15;;;;;;;46.57;29.93;;;;;;;1.95;65.96;97956.45;1759362;80;21198;-46
2021/01/14 10:40:51;;;;;;;52.05;32.03;;;;;;;1.97;65.77;97951.56;1762903;80;22207;-45
2021/01/14 10:43:34;;;;;;;49.77;31.35;;;;;;;2.00;65.77;97950.87;1782200;80;21512;-45
2021/01/14 10:46:02;;;;;;;51.20;32.33;;;;;;;2.03;65.65;97951.53;1774123;80;21002;-44
2021/01/14 10:48:38;;;;;;;53.65;33.63;;;;;;;2.02;65.74;97945.20;1781764;78;21639;-44
2021/01/14 10:51:07;;;;;;;47.05;31.05;;;;;;;1.99;65.67;97946.64;1770040;79;21668;-44
2021/01/14 10:53:41;;;;;;;46.48;30.48;;;;;;;1.93;65.82;97944.00;1789730;79;21105;-44
2021/01/14 10:56:14;;;;;;;51.30;31.23;;;;;;;2.00;65.79;97940.19;1781972;79;21364;-45
2021/01/14 10:58:42;;;;;;;47.60;30.30;;;;;;;1.98;65.75;97936.31;1788475;79;21596;-44
2021/01/14 11:01:20;;;;;;;44.10;27.42;;;;;;;1.96;65.75;97935.30;1775072;79;21372;-44
2021/01/14 11:03:50;;;;;;;44.05;27.30;;;;;;;1.99;65.61;97934.61;1779654;79;21150;-44
2021/01/14 11:06:37;;;;;;;43.23;27.40;;;;;;;2.01;65.40;97931.05;1777839;79;21122;-45
2021/01/14 11:09:08;;;;;;;47.23;29.87;;;;;;;2.05;65.62;97934.61;1794032;80;21934;-44
2021/01/14 11:11:37;;;;;;;47.30;31.45;;;;;;;2.08;65.45;97936.59;1786190;79;21166;-44
2021/01/14 11:14:06;;;;;;;43.00;28.40;;;;;;;2.04;65.51;97930.37;1777287;79;23459;-44
2021/01/14 11:16:35;;;;;;;40.85;26.85;;;;;;;2.05;65.71;97923.91;1745436;79;21197;-44
2021/01/14 11:19:04;;;;;;;40.80;25.62;;;;;;;2.10;65.64;97919.67;1795785;79;21134;-44
2021/01/14 11:21:37;;;;;;;47.78;30.60;;;;;;;2.16;65.65;97926.34;1780681;79;21562;-44
2021/01/14 11:24:06;;;;;;;53.80;33.02;;;;;;;2.22;65.50;97931.45;1779275;78;21198;-44
2021/01/14 11:26:36;;;;;;;;;;;;;;;2.21;65.28;97929.34;1797427;79;21410;-44
2021/01/14 11:29:04;;;;;;;62.95;37.17;;;;;;;2.17;65.12;97925.79;1786340;79;20278;-44
2021/01/14 11:31:33;;;;;;;62.60;38.98;;;;;;;2.03;65.53;97925.38;1788088;78;21111;-44
2021/01/14 11:34:01;;;;;;;66.00;41.28;;;;;;;1.97;65.65;97928.84;1794962;79;21098;-43
2021/01/14 11:36:29;;;;;;;77.17;42.80;;;;;;;1.90;65.68;97929.95;1785583;79;21420;-44
2021/01/14 11:38:58;;;;;;;76.65;44.15;;;;;;;1.80;66.04;97932.30;1772591;78;21190;-44
2021/01/14 11:41:26;;;;;;;70.65;42.08;;;;;;;1.68;66.21;97941.13;1791166;79;21038;-44
2021/01/14 11:43:56;;;;;;;63.15;39.10;;;;;;;1.56;66.47;97943.23;1786497;78;21146;-44
2021/01/14 11:46:25;;;;;;;64.70;39.42;;;;;;;1.44;66.70;97933.91;1793610;79;21169;-44
2021/01/14 11:48:53;;;;;;;59.70;37.00;;;;;;;1.40;66.97;97933.58;1763824;80;21138;-45
2021/01/14 11:51:21;;;;;;;63.63;38.53;;;;;;;1.33;67.41;97926.11;1763776;80;21432;-44